Time;durP1;ratioP1;P1;durP2;ratioP2;P2;SDS_P1;SDS_P2;PMS_P1;PMS_P2;Temp;Humidity;BMP_temperature;BMP_pressure;BME280_temperature;BME280_humidity;BME280_pressure;Samples;Min_cycle;Max_cycle;Signal;HPM_P1;HPM_P2
2021/12/11 00:02:18;;;;;;;3.20;2.03;;;4.10;99.90;;;;;;5065913;28;20441;-69
2021/12/11 00:04:51;;;;;;;4.57;1.70;;;4.10;99.90;;;;;;5065626;28;20446;-68
2021/12/11 00:07:20;;;;;;;2.17;1.30;;;4.10;99.90;;;;;;5065250;28;20443;-69
2021/12/11 00:09:51;;;;;;;2.63;1.80;;;4.10;99.90;;;;;;5065067;28;20927;-69
2021/12/11 00:12:22;;;;;;;3.07;1.97;;;4.20;99.90;;;;;;5066054;28;20519;-69
2021/12/11 00:14:53;;;;;;;2.63;1.63;;;4.20;99.90;;;;;;5065412;28;20597;-69
2021/12/11 00:17:23;;;;;;;2.50;1.73;;;4.20;99.90;;;;;;5065546;28;20449;-69
2021/12/11 00:19:50;;;;;;;4.83;1.93;;;4.20;99.90;;;;;;5062720;28;20598;-69
2021/12/11 00:22:20;;;;;;;5.30;2.27;;;4.10;99.90;;;;;;5049001;28;20479;-71
2021/12/11 00:24:49;;;;;;;2.97;2.47;;;4.00;99.90;;;;;;5065530;28;20522;-71
2021/12/11 00:27:20;;;;;;;5.13;2.90;;;4.00;99.90;;;;;;5065843;28;20449;-70
2021/12/11 00:29:48;;;;;;;3.60;2.60;;;3.70;99.90;;;;;;5065504;28;20522;-70
2021/12/11 00:32:23;;;;;;;3.60;2.40;;;3.60;99.90;;;;;;5059049;28;20522;-70
2021/12/11 00:34:51;;;;;;;5.17;3.00;;;3.40;99.90;;;;;;5065191;28;20492;-71
2021/12/11 00:37:21;;;;;;;3.67;2.13;;;3.30;99.90;;;;;;5065578;28;20519;-70
2021/12/11 00:39:52;;;;;;;5.00;2.40;;;3.20;99.90;;;;;;5062912;28;20439;-70
2021/12/11 00:42:21;;;;;;;4.00;2.03;;;3.10;99.90;;;;;;5062416;28;20453;-70
2021/12/11 00:44:51;;;;;;;4.33;2.50;;;3.10;99.90;;;;;;5065240;28;20452;-71
2021/12/11 00:47:21;;;;;;;3.20;2.20;;;3.00;99.90;;;;;;5061644;28;20437;-70
2021/12/11 00:49:52;;;;;;;2.87;1.90;;;3.00;99.90;;;;;;5055815;28;20533;-70
2021/12/11 00:52:26;;;;;;;3.60;2.13;;;2.90;99.90;;;;;;5062901;28;20435;-70
2021/12/11 00:54:54;;;;;;;3.13;2.10;;;2.90;99.90;;;;;;5065297;28;21212;-70
2021/12/11 00:57:22;;;;;;;6.60;2.90;;;2.90;99.90;;;;;;5065146;28;20882;-71
2021/12/11 01:00:04;;;;;;;3.37;2.23;;;2.80;99.90;;;;;;5058817;28;20512;-73
2021/12/11 01:02:31;;;;;;;4.37;2.00;;;2.80;99.90;;;;;;5059297;28;20534;-70
2021/12/11 01:04:58;;;;;;;3.27;2.40;;;2.70;99.90;;;;;;5065403;28;20436;-71
2021/12/11 01:07:31;;;;;;;3.73;2.60;;;2.70;99.90;;;;;;5058974;28;20447;-70
2021/12/11 01:10:01;;;;;;;4.10;2.67;;;2.70;99.90;;;;;;5063547;28;20445;-71
2021/12/11 01:12:41;;;;;;;2.97;1.93;;;2.70;99.90;;;;;;5069735;28;20435;-71
2021/12/11 01:15:15;;;;;;;3.63;2.17;;;2.70;99.90;;;;;;5069692;28;20474;-72
2021/12/11 01:17:49;;;;;;;2.97;2.10;;;2.70;99.90;;;;;;5069392;28;20437;-72
2021/12/11 01:20:20;;;;;;;2.63;1.93;;;2.60;99.90;;;;;;5061952;28;20819;-71
2021/12/11 01:22:47;;;;;;;3.53;2.20;;;2.70;99.90;;;;;;5050822;28;20452;-71
2021/12/11 01:25:20;;;;;;;3.70;1.70;;;2.70;99.90;;;;;;5049759;28;20443;-72
2021/12/11 01:27:49;;;;;;;3.07;2.30;;;2.80;99.90;;;;;;5049219;28;20436;-70
2021/12/11 01:30:20;;;;;;;2.97;1.80;;;2.80;99.90;;;;;;5049723;28;20455;-70
2021/12/11 01:32:48;;;;;;;2.40;1.50;;;2.80;99.90;;;;;;5055482;28;20527;-70
2021/12/11 01:35:17;;;;;;;3.53;1.97;;;2.80;99.90;;;;;;5060679;28;20484;-70
2021/12/11 01:37:46;;;;;;;2.70;1.63;;;2.80;99.90;;;;;;5060703;28;20451;-70
2021/12/11 01:40:19;;;;;;;3.93;2.30;;;2.80;99.90;;;;;;5053966;28;20579;-70
2021/12/11 01:42:47;;;;;;;2.70;1.50;;;2.80;99.90;;;;;;5048635;28;20453;-70
2021/12/11 01:45:16;;;;;;;2.77;1.70;;;2.80;99.90;;;;;;5048750;28;20446;-70
2021/12/11 01:47:48;;;;;;;2.90;1.67;;;2.80;99.90;;;;;;5050882;28;20444;-70
2021/12/11 01:50:19;;;;;;;3.33;1.80;;;2.80;99.90;;;;;;5054026;28;20472;-71
2021/12/11 01:52:49;;;;;;;2.37;1.40;;;2.80;99.90;;;;;;5052783;28;20441;-70
2021/12/11 01:55:23;;;;;;;2.87;1.47;;;2.80;99.90;;;;;;5049203;28;20487;-70
2021/12/11 01:57:53;;;;;;;2.90;1.60;;;2.80;99.90;;;;;;5048081;28;20483;-70
2021/12/11 02:00:24;;;;;;;2.73;1.77;;;2.80;99.90;;;;;;5048819;28;20557;-71
2021/12/11 02:02:54;;;;;;;2.50;1.47;;;2.80;99.90;;;;;;5049120;28;20441;-71
2021/12/11 02:05:23;;;;;;;2.27;1.60;;;2.80;99.90;;;;;;5062390;28;20448;-70
2021/12/11 02:07:54;;;;;;;2.53;1.50;;;2.80;99.90;;;;;;5052097;28;20437;-70
2021/12/11 02:10:29;;;;;;;3.40;1.67;;;2.80;99.90;;;;;;5057748;28;20470;-71
2021/12/11 02:12:58;;;;;;;2.57;1.80;;;2.70;99.90;;;;;;5050039;28;20482;-70
2021/12/11 02:15:33;;;;;;;3.17;1.80;;;2.80;99.90;;;;;;5054057;28;20480;-70
2021/12/11 02:18:08;;;;;;;2.60;1.87;;;2.70;99.90;;;;;;5052727;28;20446;-71
2021/12/11 02:20:41;;;;;;;2.80;1.87;;;2.70;99.90;;;;;;5066914;28;20455;-72
2021/12/11 02:23:09;;;;;;;3.73;1.83;;;2.80;99.90;;;;;;5067922;28;20456;-71
2021/12/11 02:25:39;;;;;;;3.30;2.20;;;2.80;99.90;;;;;;5068435;28;20449;-69
2021/12/11 02:28:12;;;;;;;3.00;2.43;;;2.80;99.90;;;;;;5068081;28;20527;-71
2021/12/11 02:30:44;;;;;;;3.80;1.87;;;2.80;99.90;;;;;;5068406;28;20521;-70
2021/12/11 02:33:17;;;;;;;2.70;1.80;;;2.80;99.90;;;;;;5068587;28;20447;-69
2021/12/11 02:35:47;;;;;;;3.10;2.10;;;2.80;99.90;;;;;;5067988;28;21000;-70
2021/12/11 02:38:20;;;;;;;3.00;1.90;;;2.80;99.90;;;;;;5050188;28;20448;-70
2021/12/11 02:40:51;;;;;;;3.57;2.40;;;2.70;99.90;;;;;;5047776;28;20471;-70
2021/12/11 02:43:22;;;;;;;3.40;2.53;;;2.80;99.90;;;;;;5048467;28;20469;-70
2021/12/11 02:45:53;;;;;;;3.93;2.83;;;2.80;99.90;;;;;;5060918;28;20440;-70
2021/12/11 02:48:25;;;;;;;3.77;2.67;;;2.70;99.90;;;;;;5067494;28;20545;-72
2021/12/11 02:50:59;;;;;;;4.13;2.70;;;2.70;99.90;;;;;;5059765;28;20456;-70
2021/12/11 02:53:32;;;;;;;3.40;2.60;;;2.80;99.90;;;;;;5047851;28;20450;-70
2021/12/11 02:56:05;;;;;;;5.17;3.47;;;2.80;99.90;;;;;;5047185;28;21255;-71
2021/12/11 02:58:36;;;;;;;4.43;3.27;;;2.70;99.90;;;;;;5047752;28;20519;-71
2021/12/11 03:01:06;;;;;;;4.10;3.10;;;2.70;99.90;;;;;;5047251;28;20481;-71
2021/12/11 03:03:38;;;;;;;4.10;3.47;;;2.70;99.90;;;;;;5047674;28;20529;-71
2021/12/11 03:06:12;;;;;;;4.17;3.00;;;2.80;99.90;;;;;;5047620;28;20495;-71
2021/12/11 03:08:41;;;;;;;4.80;3.73;;;2.80;99.90;;;;;;5046690;28;20477;-71
2021/12/11 03:11:11;;;;;;;4.17;3.53;;;2.80;99.90;;;;;;5047363;28;20982;-70
2021/12/11 03:13:39;;;;;;;5.07;3.47;;;2.80;99.90;;;;;;5047538;28;20524;-71
2021/12/11 03:16:07;;;;;;;5.57;3.73;;;2.80;99.90;;;;;;5047180;28;20526;-71
2021/12/11 03:18:34;;;;;;;4.93;3.90;;;2.80;99.90;;;;;;5059479;28;20440;-72
2021/12/11 03:21:02;;;;;;;4.10;3.50;;;2.80;99.90;;;;;;5049013;28;20465;-70
2021/12/11 03:23:29;;;;;;;5.73;5.13;;;2.80;99.90;;;;;;5047113;28;20452;-71
2021/12/11 03:25:57;;;;;;;5.03;4.53;;;2.80;99.90;;;;;;5046982;28;20488;-71
2021/12/11 03:28:25;;;;;;;4.40;3.60;;;2.80;99.90;;;;;;5046454;28;20893;-71
2021/12/11 03:30:57;;;;;;;5.10;4.43;;;2.80;99.90;;;;;;5046168;28;20960;-71
2021/12/11 03:33:27;;;;;;;4.93;4.27;;;2.90;99.90;;;;;;5046796;28;21273;-71
2021/12/11 03:35:55;;;;;;;5.70;4.67;;;2.90;99.90;;;;;;5053390;28;21041;-70
2021/12/11 03:38:23;;;;;;;6.17;5.23;;;2.90;99.90;;;;;;5066569;28;20526;-70
2021/12/11 03:40:51;;;;;;;6.37;5.30;;;2.90;99.90;;;;;;5065940;28;20970;-72
2021/12/11 03:43:22;;;;;;;5.53;4.80;;;2.90;99.90;;;;;;5066533;28;20436;-69
2021/12/11 03:45:55;;;;;;;6.30;4.80;;;2.90;99.90;;;;;;5065875;28;20519;-69
2021/12/11 03:48:25;;;;;;;5.47;4.97;;;2.90;99.90;;;;;;5066355;28;20449;-69
2021/12/11 03:50:53;;;;;;;5.00;4.50;;;2.90;99.90;;;;;;5057531;28;20567;-70
2021/12/11 03:53:20;;;;;;;6.53;5.10;;;2.90;99.90;;;;;;5046590;28;20459;-69
2021/12/11 03:55:51;;;;;;;5.60;4.93;;;2.90;99.90;;;;;;5045936;28;20487;-69
2021/12/11 03:58:20;;;;;;;6.40;5.40;;;2.90;99.90;;;;;;5046548;28;20446;-71
2021/12/11 04:00:50;;;;;;;6.20;5.60;;;2.90;99.90;;;;;;5045606;28;20964;-71
2021/12/11 04:03:21;;;;;;;5.83;5.23;;;2.90;99.90;;;;;;5046604;28;20452;-70
2021/12/11 04:05:48;;;;;;;6.73;6.03;;;2.90;99.90;;;;;;5045899;28;20526;-70
2021/12/11 04:08:25;;;;;;;7.30;6.60;;;2.90;99.90;;;;;;5046063;28;20448;-69
2021/12/11 04:10:52;;;;;;;7.27;6.53;;;3.00;99.90;;;;;;5045825;28;20455;-69
2021/12/11 04:13:21;;;;;;;6.83;6.17;;;3.00;99.90;;;;;;5046118;28;20442;-70
2021/12/11 04:15:50;;;;;;;8.00;7.20;;;3.00;99.90;;;;;;5064677;28;20485;-69
2021/12/11 04:18:18;;;;;;;8.00;7.23;;;2.90;99.90;;;;;;5067249;28;20439;-69
2021/12/11 04:20:47;;;;;;;8.47;7.57;;;2.90;99.90;;;;;;5067412;28;21056;-69
2021/12/11 04:23:15;;;;;;;8.20;7.40;;;2.90;99.90;;;;;;5067638;28;20832;-69
2021/12/11 04:25:46;;;;;;;9.63;8.70;;;2.90;99.90;;;;;;5068093;28;20460;-70
2021/12/11 04:28:16;;;;;;;8.80;7.90;;;2.90;99.90;;;;;;5067270;28;20457;-69
2021/12/11 04:30:45;;;;;;;8.57;7.77;;;2.90;99.90;;;;;;5067884;28;20469;-70
2021/12/11 04:33:12;;;;;;;8.83;7.93;;;2.90;99.90;;;;;;5067827;28;20440;-70
2021/12/11 04:35:42;;;;;;;9.70;8.70;;;3.00;99.90;;;;;;5068073;28;20884;-70
2021/12/11 04:38:10;;;;;;;11.33;9.43;;;2.90;99.90;;;;;;5067619;28;20493;-70
2021/12/11 04:40:40;;;;;;;10.10;8.87;;;3.00;99.90;;;;;;5067790;28;20559;-70
2021/12/11 04:43:12;;;;;;;11.20;9.60;;;3.00;99.90;;;;;;5067204;28;20446;-72
2021/12/11 04:45:44;;;;;;;10.50;9.50;;;2.90;99.90;;;;;;5067892;28;20440;-70
2021/12/11 04:48:19;;;;;;;11.50;10.23;;;3.00;99.90;;;;;;5067920;28;20444;-71
2021/12/11 04:50:54;;;;;;;10.40;9.30;;;3.00;99.90;;;;;;5067775;28;20481;-71
2021/12/11 04:53:40;;;;;;;12.43;9.60;;;2.90;99.90;;;;;;5068338;28;20439;-70
2021/12/11 04:56:32;;;;;;;10.60;9.60;;;3.00;99.90;;;;;;5068691;28;20540;-70
2021/12/11 04:59:21;;;;;;;10.43;9.33;;;3.00;99.90;;;;;;5068805;28;20448;-70
2021/12/11 05:01:59;;;;;;;11.80;10.00;;;3.00;99.90;;;;;;5069605;28;20550;-71
2021/12/11 05:04:46;;;;;;;12.87;11.33;;;3.00;99.90;;;;;;5069424;28;20550;-70
2021/12/11 05:07:25;;;;;;;12.03;10.60;;;3.00;99.90;;;;;;5066889;28;20619;-70
2021/12/11 05:09:58;;;;;;;12.20;11.00;;;3.00;99.90;;;;;;5067274;28;20437;-71
2021/12/11 05:12:35;;;;;;;11.93;10.57;;;3.00;99.90;;;;;;5067301;28;20442;-71
2021/12/11 05:15:05;;;;;;;10.77;9.60;;;3.00;99.90;;;;;;5067547;28;20435;-71
2021/12/11 05:17:32;;;;;;;10.97;9.90;;;3.00;99.90;;;;;;5066740;28;20469;-72
2021/12/11 05:20:01;;;;;;;12.60;9.73;;;3.00;99.90;;;;;;5067823;28;20447;-70
2021/12/11 05:22:28;;;;;;;12.80;10.40;;;3.00;99.90;;;;;;5067236;28;20945;-70
2021/12/11 05:24:56;;;;;;;11.97;10.53;;;3.00;99.90;;;;;;5067462;28;20467;-72
2021/12/11 05:27:25;;;;;;;10.57;9.47;;;3.00;99.90;;;;;;5066889;28;20433;-70
2021/12/11 05:29:53;;;;;;;11.33;10.00;;;3.00;99.90;;;;;;5067178;28;20442;-70
2021/12/11 05:32:23;;;;;;;9.87;8.87;;;3.10;99.90;;;;;;5066883;28;20440;-69
2021/12/11 05:34:50;;;;;;;11.27;9.90;;;3.00;99.90;;;;;;5067473;28;20466;-68
2021/12/11 05:37:19;;;;;;;12.60;11.20;;;3.00;99.90;;;;;;5067194;28;20478;-70
2021/12/11 05:39:46;;;;;;;10.87;9.23;;;3.00;99.90;;;;;;5067289;28;20439;-70
2021/12/11 05:42:13;;;;;;;10.70;8.80;;;3.00;99.90;;;;;;5067424;28;20861;-69
2021/12/11 05:44:41;;;;;;;10.40;8.80;;;3.00;99.90;;;;;;5067220;28;20475;-69
2021/12/11 05:47:08;;;;;;;11.77;10.57;;;2.90;99.90;;;;;;5067417;28;20438;-69
2021/12/11 05:49:36;;;;;;;12.37;9.77;;;2.90;99.90;;;;;;5067168;28;20436;-68
2021/12/11 05:52:06;;;;;;;11.03;9.20;;;3.00;99.90;;;;;;5067274;28;20460;-68
2021/12/11 05:54:35;;;;;;;10.80;9.70;;;3.00;99.90;;;;;;5067470;28;20441;-68
2021/12/11 05:57:06;;;;;;;13.20;9.93;;;3.00;99.90;;;;;;5070306;28;20511;-70
2021/12/11 05:59:35;;;;;;;11.60;10.40;;;3.00;99.90;;;;;;5070451;28;20446;-68
2021/12/11 06:02:08;;;;;;;10.00;8.97;;;3.00;99.90;;;;;;5070525;28;20990;-70
2021/12/11 06:04:37;;;;;;;10.90;9.80;;;3.00;99.90;;;;;;5070349;28;20441;-69
2021/12/11 06:07:07;;;;;;;11.17;9.57;;;3.00;99.90;;;;;;5069503;28;20438;-69
2021/12/11 06:09:37;;;;;;;12.40;10.93;;;3.00;99.90;;;;;;5069058;28;20448;-71
2021/12/11 06:12:06;;;;;;;11.27;10.07;;;3.00;99.90;;;;;;5069733;28;20459;-70
2021/12/11 06:14:34;;;;;;;12.20;11.10;;;3.00;99.90;;;;;;5070221;28;20471;-70
2021/12/11 06:17:05;;;;;;;11.37;10.00;;;3.00;99.90;;;;;;5069319;28;20478;-69
2021/12/11 06:19:33;;;;;;;12.67;10.70;;;3.00;99.90;;;;;;5069864;28;20455;-69
2021/12/11 06:22:01;;;;;;;13.23;11.27;;;3.10;99.90;;;;;;5069588;28;20472;-69
2021/12/11 06:24:28;;;;;;;11.57;10.37;;;3.00;99.90;;;;;;5069840;28;20431;-69
2021/12/11 06:26:59;;;;;;;11.47;10.30;;;3.00;99.90;;;;;;5069341;28;20446;-69
2021/12/11 06:29:26;;;;;;;12.53;11.10;;;3.10;99.90;;;;;;5069444;28;20448;-70
2021/12/11 06:31:54;;;;;;;14.10;12.30;;;3.10;99.90;;;;;;5069506;28;20459;-70
2021/12/11 06:34:21;;;;;;;13.17;11.17;;;3.00;99.90;;;;;;5069561;28;20911;-70
2021/12/11 06:36:48;;;;;;;14.27;12.33;;;3.10;99.90;;;;;;5069063;28;20485;-69
2021/12/11 06:39:18;;;;;;;13.97;12.57;;;3.00;99.90;;;;;;5069544;28;20436;-69
2021/12/11 06:41:49;;;;;;;16.27;12.83;;;3.10;99.90;;;;;;5069269;28;20467;-70
2021/12/11 06:44:18;;;;;;;17.17;14.37;;;3.10;99.90;;;;;;5069358;28;20441;-69
2021/12/11 06:46:45;;;;;;;17.00;14.07;;;3.10;99.90;;;;;;5069036;28;20434;-70
2021/12/11 06:49:12;;;;;;;15.30;12.30;;;3.10;99.90;;;;;;5069181;28;20440;-71
2021/12/11 06:51:39;;;;;;;15.00;13.00;;;3.10;99.90;;;;;;5069194;28;20452;-69
2021/12/11 06:54:10;;;;;;;16.53;13.90;;;3.10;99.90;;;;;;5069180;28;20449;-70
2021/12/11 06:56:39;;;;;;;15.83;14.13;;;3.10;99.90;;;;;;5068912;28;20524;-69
2021/12/11 06:59:07;;;;;;;17.37;13.60;;;3.10;99.90;;;;;;5069552;28;20550;-70
2021/12/11 07:01:36;;;;;;;14.83;13.20;;;3.10;99.90;;;;;;5068975;28;20465;-70
2021/12/11 07:04:06;;;;;;;18.20;13.30;;;3.10;99.90;;;;;;5068918;28;20513;-69
2021/12/11 07:06:36;;;;;;;16.53;13.80;;;3.10;99.90;;;;;;5068336;28;20445;-69
2021/12/11 07:09:05;;;;;;;18.93;15.13;;;3.10;99.90;;;;;;5069017;28;20795;-69
2021/12/11 07:11:32;;;;;;;17.37;13.67;;;3.10;99.90;;;;;;5068729;28;20468;-70
2021/12/11 07:14:00;;;;;;;20.53;16.40;;;3.10;99.90;;;;;;5068874;28;20444;-70
2021/12/11 07:16:27;;;;;;;19.20;15.50;;;3.10;99.90;;;;;;5068129;28;20438;-71
2021/12/11 07:18:56;;;;;;;20.63;16.00;;;3.10;99.90;;;;;;5068777;28;20779;-71
2021/12/11 07:21:22;;;;;;;19.10;15.73;;;3.10;99.90;;;;;;5068410;28;20455;-70
2021/12/11 07:23:49;;;;;;;17.03;14.00;;;3.10;99.90;;;;;;5068734;28;20449;-70
2021/12/11 07:26:19;;;;;;;18.50;14.20;;;3.10;99.90;;;;;;5068148;28;20543;-72
2021/12/11 07:28:49;;;;;;;16.97;13.73;;;3.10;99.90;;;;;;5068369;28;20450;-70
2021/12/11 07:31:17;;;;;;;18.53;13.93;;;3.10;99.90;;;;;;5068582;28;20463;-70
2021/12/11 07:33:44;;;;;;;17.50;13.60;;;3.10;99.90;;;;;;5068432;28;20490;-70
2021/12/11 07:36:13;;;;;;;17.10;14.60;;;3.20;99.90;;;;;;5068550;28;20452;-70
2021/12/11 07:38:41;;;;;;;17.80;13.97;;;3.20;99.90;;;;;;5068010;28;20873;-71
2021/12/11 07:41:11;;;;;;;19.97;13.77;;;3.20;99.90;;;;;;5068166;28;20551;-71
2021/12/11 07:43:39;;;;;;;17.50;14.30;;;3.20;99.90;;;;;;5067858;28;20447;-70
2021/12/11 07:46:08;;;;;;;19.43;14.87;;;3.20;99.90;;;;;;5068377;28;20450;-70
2021/12/11 07:48:35;;;;;;;18.77;13.90;;;3.20;99.90;;;;;;5067812;28;20439;-70
2021/12/11 07:51:02;;;;;;;18.50;14.43;;;3.20;99.90;;;;;;5067847;28;20830;-70
2021/12/11 07:53:30;;;;;;;20.30;13.83;;;3.20;99.90;;;;;;5067721;28;20441;-70
2021/12/11 07:55:57;;;;;;;21.40;15.93;;;3.20;99.90;;;;;;5067900;28;20449;-71
2021/12/11 07:58:24;;;;;;;21.37;16.33;;;3.20;99.90;;;;;;5067552;28;20500;-68
2021/12/11 08:00:51;;;;;;;18.07;15.00;;;3.20;99.90;;;;;;5067763;28;21057;-70
2021/12/11 08:03:19;;;;;;;18.20;14.77;;;3.20;99.90;;;;;;5067973;28;20436;-69
2021/12/11 08:05:49;;;;;;;21.10;16.43;;;3.20;99.90;;;;;;5067940;28;20451;-70
2021/12/11 08:08:16;;;;;;;19.50;14.83;;;3.20;99.90;;;;;;5066462;28;20441;-71
2021/12/11 08:10:51;;;;;;;19.20;14.63;;;3.20;99.90;;;;;;5061314;28;21017;-72
2021/12/11 08:13:17;;;;;;;18.57;15.03;;;3.20;99.90;;;;;;5055109;28;20864;-70
2021/12/11 08:15:45;;;;;;;17.53;14.50;;;3.20;99.90;;;;;;5060789;28;20457;-69
2021/12/11 08:18:14;;;;;;;19.30;15.10;;;3.20;99.90;;;;;;5061143;28;20838;-69
2021/12/11 08:20:43;;;;;;;20.67;16.00;;;3.20;99.90;;;;;;5056274;28;20509;-72
2021/12/11 08:23:11;;;;;;;19.47;14.93;;;3.20;99.90;;;;;;5063516;28;20456;-71
2021/12/11 08:25:40;;;;;;;19.70;16.07;;;3.20;99.90;;;;;;5063394;28;20471;-75
2021/12/11 08:28:12;;;;;;;18.07;15.13;;;3.20;99.90;;;;;;5066302;28;20432;-71
2021/12/11 08:30:41;;;;;;;19.80;15.10;;;3.30;99.90;;;;;;5061407;28;20466;-72
2021/12/11 08:33:08;;;;;;;19.50;15.60;;;3.30;99.90;;;;;;5062519;28;20441;-73
2021/12/11 08:35:36;;;;;;;20.50;15.47;;;3.30;99.90;;;;;;5055559;28;20453;-76
2021/12/11 08:38:05;;;;;;;17.73;15.23;;;3.30;99.90;;;;;;5055687;28;20534;-71
2021/12/11 08:40:36;;;;;;;17.43;13.60;;;3.30;99.90;;;;;;5056445;28;20551;-73
2021/12/11 08:43:06;;;;;;;18.83;13.80;;;3.30;99.90;;;;;;5064125;28;20448;-72
2021/12/11 08:45:45;;;;;;;17.57;14.10;;;3.30;99.90;;;;;;5066529;28;20910;-68
2021/12/11 08:48:15;;;;;;;20.80;15.07;;;3.30;99.90;;;;;;5056195;28;20450;-68
2021/12/11 08:50:44;;;;;;;18.73;14.53;;;3.40;99.90;;;;;;5062399;28;20454;-71
2021/12/11 08:53:11;;;;;;;19.00;14.80;;;3.40;99.90;;;;;;5067137;28;20442;-68
2021/12/11 08:55:43;;;;;;;16.90;14.13;;;3.40;99.90;;;;;;5067506;28;20546;-68
2021/12/11 08:58:15;;;;;;;19.03;15.57;;;3.40;99.90;;;;;;5063499;28;20471;-71
2021/12/11 09:00:48;;;;;;;19.60;16.90;;;3.40;99.90;;;;;;5059049;28;20522;-70
2021/12/11 09:03:19;;;;;;;18.93;15.33;;;3.40;99.90;;;;;;5065317;28;20441;-70
2021/12/11 09:05:50;;;;;;;22.83;16.37;;;3.40;99.90;;;;;;5066093;28;20477;-69
2021/12/11 09:08:21;;;;;;;24.57;17.30;;;3.50;99.90;;;;;;5054728;28;20951;-66
2021/12/11 09:10:53;;;;;;;24.17;19.53;;;3.50;99.90;;;;;;5066581;28;20463;-67
2021/12/11 09:13:25;;;;;;;22.83;18.37;;;3.60;99.90;;;;;;5066538;28;20478;-69
2021/12/11 09:15:57;;;;;;;23.13;18.27;;;3.60;99.90;;;;;;5059428;28;20445;-68
2021/12/11 09:18:28;;;;;;;23.07;17.80;;;3.60;99.90;;;;;;5068910;28;20478;-69
2021/12/11 09:21:01;;;;;;;23.03;16.80;;;3.70;99.90;;;;;;5067795;28;20465;-69
2021/12/11 09:23:36;;;;;;;20.03;16.40;;;3.70;99.90;;;;;;5068453;28;20453;-71
2021/12/11 09:26:08;;;;;;;20.37;17.87;;;3.80;99.90;;;;;;5065851;28;20447;-69
2021/12/11 09:28:40;;;;;;;21.10;17.23;;;3.80;99.90;;;;;;5066656;28;20445;-69
2021/12/11 09:31:15;;;;;;;21.00;16.20;;;3.90;99.90;;;;;;5069996;28;20486;-70
2021/12/11 09:34:00;;;;;;;18.03;15.80;;;3.90;99.90;;;;;;5070001;28;20534;-70
2021/12/11 09:36:31;;;;;;;18.67;15.20;;;3.90;99.90;;;;;;5069576;28;20477;-69
2021/12/11 09:39:10;;;;;;;15.33;12.80;;;4.00;99.90;;;;;;5069865;28;20478;-70
2021/12/11 09:41:36;;;;;;;16.33;13.63;;;4.00;99.90;;;;;;5069720;28;20472;-70
2021/12/11 09:44:09;;;;;;;15.80;13.33;;;4.10;99.90;;;;;;5069896;28;20455;-70
2021/12/11 09:46:39;;;;;;;17.23;14.10;;;4.20;99.90;;;;;;5069756;28;20520;-70
2021/12/11 09:49:11;;;;;;;15.43;13.73;;;4.20;99.90;;;;;;5069470;28;20442;-71
2021/12/11 09:51:43;;;;;;;13.47;11.73;;;4.30;99.90;;;;;;5070687;28;20465;-67
2021/12/11 09:54:14;;;;;;;18.00;12.93;;;4.30;99.90;;;;;;5070753;28;20548;-69
2021/12/11 09:56:45;;;;;;;14.97;12.40;;;4.40;99.90;;;;;;5069762;28;20446;-69
2021/12/11 09:59:17;;;;;;;13.60;11.00;;;4.40;99.90;;;;;;5070153;28;20481;-68
2021/12/11 10:01:46;;;;;;;12.30;10.40;;;4.50;99.90;;;;;;5070537;28;20454;-69
2021/12/11 10:04:17;;;;;;;12.00;10.70;;;4.50;99.90;;;;;;5070239;28;21088;-71
2021/12/11 10:07:02;;;;;;;13.90;11.20;;;4.60;99.90;;;;;;5070145;28;20540;-69
2021/12/11 10:09:44;;;;;;;12.90;11.43;;;4.70;99.90;;;;;;5070288;28;20454;-70
2021/12/11 10:12:14;;;;;;;11.67;9.97;;;4.70;99.90;;;;;;5070279;28;20444;-72
2021/12/11 10:14:47;;;;;;;10.80;8.07;;;4.70;99.90;;;;;;5070728;28;20440;-71
2021/12/11 10:17:19;;;;;;;11.67;10.47;;;4.70;99.90;;;;;;5069956;28;20447;-71
2021/12/11 10:19:46;;;;;;;11.17;9.30;;;4.70;99.90;;;;;;5069976;28;20501;-71
2021/12/11 10:22:20;;;;;;;10.73;9.13;;;4.80;99.90;;;;;;5069531;28;21094;-68
2021/12/11 10:24:48;;;;;;;11.90;9.67;;;4.80;99.90;;;;;;5070124;28;20488;-70
2021/12/11 10:27:20;;;;;;;11.30;9.53;;;4.80;99.90;;;;;;5069419;28;20483;-69
2021/12/11 10:29:49;;;;;;;12.43;8.83;;;4.80;99.90;;;;;;5069559;28;20442;-68
2021/12/11 10:32:19;;;;;;;10.50;8.97;;;4.80;99.90;;;;;;5058542;28;20470;-67
2021/12/11 10:34:49;;;;;;;10.63;8.80;;;4.80;99.90;;;;;;5057174;28;20456;-69
2021/12/11 10:37:20;;;;;;;16.53;12.30;;;4.80;99.90;;;;;;5048823;28;20462;-68
2021/12/11 10:39:51;;;;;;;10.57;8.83;;;4.90;99.90;;;;;;5059368;28;20522;-69
2021/12/11 10:42:19;;;;;;;9.93;8.67;;;5.10;99.90;;;;;;5062457;28;20451;-67
2021/12/11 10:44:50;;;;;;;10.43;8.37;;;5.00;99.90;;;;;;5063317;28;20449;-68
2021/12/11 10:47:20;;;;;;;10.50;8.37;;;5.10;99.90;;;;;;5063730;28;20831;-68
2021/12/11 10:49:49;;;;;;;10.27;8.20;;;5.10;99.90;;;;;;5062497;28;20840;-69
2021/12/11 10:52:20;;;;;;;9.93;8.40;;;5.10;99.90;;;;;;5063684;28;20451;-71
2021/12/11 10:54:48;;;;;;;12.70;8.87;;;5.20;99.90;;;;;;5063526;28;20999;-70
2021/12/11 10:57:17;;;;;;;11.83;7.47;;;5.10;99.90;;;;;;5063703;28;20450;-70
2021/12/11 10:59:46;;;;;;;8.90;7.67;;;5.10;99.90;;;;;;5044647;28;20489;-70
2021/12/11 11:02:17;;;;;;;10.27;8.10;;;5.00;99.90;;;;;;5063113;28;20450;-69
2021/12/11 11:04:47;;;;;;;9.17;7.50;;;5.00;99.90;;;;;;5063761;28;20443;-68
2021/12/11 11:07:15;;;;;;;10.90;7.33;;;5.00;99.90;;;;;;5062583;28;20445;-69
2021/12/11 11:09:43;;;;;;;9.47;6.60;;;5.00;99.90;;;;;;5052515;28;20452;-68
2021/12/11 11:12:15;;;;;;;7.57;6.20;;;5.00;99.90;;;;;;5062690;28;20473;-70
2021/12/11 11:14:43;;;;;;;9.80;6.83;;;4.90;99.90;;;;;;5053187;28;20448;-68
2021/12/11 11:17:15;;;;;;;10.00;7.27;;;5.00;99.90;;;;;;5060364;28;20452;-69
2021/12/11 11:19:44;;;;;;;9.30;7.53;;;5.00;99.90;;;;;;5061995;28;20490;-70
2021/12/11 11:22:15;;;;;;;8.67;7.07;;;5.00;99.90;;;;;;5063137;28;21175;-69
2021/12/11 11:24:48;;;;;;;10.07;7.60;;;5.10;99.90;;;;;;5058515;28;20442;-68
2021/12/11 11:27:15;;;;;;;7.93;6.90;;;5.20;99.90;;;;;;5053800;28;20459;-69
2021/12/11 11:29:44;;;;;;;8.67;7.77;;;5.20;99.90;;;;;;5049374;28;20450;-70
2021/12/11 11:32:15;;;;;;;9.33;7.20;;;5.30;99.90;;;;;;5046589;28;20458;-71
2021/12/11 11:34:43;;;;;;;11.23;8.63;;;5.30;99.90;;;;;;5057588;28;20447;-69
2021/12/11 11:37:21;;;;;;;8.47;6.90;;;5.40;99.90;;;;;;5053842;28;20477;-69
2021/12/11 11:39:49;;;;;;;8.17;7.30;;;5.50;99.90;;;;;;5049193;28;20488;-71
2021/12/11 11:42:20;;;;;;;8.53;6.67;;;5.50;99.90;;;;;;5044998;28;20448;-70
2021/12/11 11:44:49;;;;;;;8.83;7.03;;;5.50;99.90;;;;;;5057772;28;20452;-68
2021/12/11 11:47:18;;;;;;;7.47;6.37;;;5.40;99.90;;;;;;5052507;28;21001;-70
2021/12/11 11:49:47;;;;;;;12.50;8.30;;;5.40;99.90;;;;;;5061301;28;20453;-70
2021/12/11 11:52:17;;;;;;;8.23;6.83;;;5.40;99.90;;;;;;5060420;28;20465;-69
2021/12/11 11:54:46;;;;;;;8.80;7.90;;;5.50;99.90;;;;;;5062205;28;20450;-70
2021/12/11 11:57:16;;;;;;;7.10;6.23;;;5.60;99.90;;;;;;5056160;28;20449;-69
2021/12/11 11:59:43;;;;;;;11.43;7.67;;;5.60;99.90;;;;;;5062622;28;20484;-67
2021/12/11 12:02:13;;;;;;;7.83;7.03;;;5.40;99.90;;;;;;5062466;28;20466;-69
2021/12/11 12:04:41;;;;;;;7.83;6.30;;;5.40;99.90;;;;;;5057667;28;20537;-69
2021/12/11 12:07:10;;;;;;;7.47;6.50;;;5.30;99.90;;;;;;5062547;28;20466;-71
2021/12/11 12:09:45;;;;;;;7.30;6.60;;;5.30;99.90;;;;;;5061652;28;20958;-70
2021/12/11 12:12:15;;;;;;;8.57;7.13;;;5.20;99.90;;;;;;5062834;28;20446;-70
2021/12/11 12:14:45;;;;;;;9.33;7.50;;;5.20;99.90;;;;;;5061907;28;20447;-69
2021/12/11 12:17:16;;;;;;;7.70;6.90;;;5.10;99.90;;;;;;5046305;28;20640;-70
2021/12/11 12:19:43;;;;;;;9.03;7.07;;;5.00;99.90;;;;;;5053715;28;20525;-70
2021/12/11 12:22:13;;;;;;;8.97;7.70;;;4.90;99.90;;;;;;5051558;28;20484;-69
2021/12/11 12:24:42;;;;;;;9.27;7.90;;;4.90;99.90;;;;;;5054089;28;21119;-69
2021/12/11 12:27:11;;;;;;;10.27;7.77;;;4.80;99.90;;;;;;5056345;28;20909;-70
2021/12/11 12:29:41;;;;;;;9.20;7.93;;;4.80;99.90;;;;;;5047883;28;20538;-70
2021/12/11 12:32:13;;;;;;;9.60;7.40;;;4.80;99.90;;;;;;5051790;28;20534;-69
2021/12/11 12:34:41;;;;;;;10.80;8.63;;;4.90;99.90;;;;;;5049333;28;21138;-70
2021/12/11 12:37:08;;;;;;;9.53;7.93;;;4.90;99.90;;;;;;5052060;28;20439;-70
2021/12/11 12:39:41;;;;;;;9.10;8.20;;;5.00;99.90;;;;;;5045083;28;20476;-71
2021/12/11 12:42:19;;;;;;;8.40;7.57;;;5.10;99.90;;;;;;5042869;28;20463;-70
2021/12/11 12:44:52;;;;;;;12.93;8.93;;;5.10;99.90;;;;;;5060920;28;20446;-70
2021/12/11 12:47:23;;;;;;;10.83;8.57;;;5.10;99.90;;;;;;5050331;28;20455;-71
2021/12/11 12:49:53;;;;;;;10.40;9.30;;;5.10;99.90;;;;;;5048905;28;20443;-71
2021/12/11 12:52:26;;;;;;;9.70;8.67;;;5.00;99.90;;;;;;5055669;28;20463;-72
2021/12/11 12:54:55;;;;;;;9.33;8.10;;;4.90;99.90;;;;;;5054972;28;20451;-70
2021/12/11 12:57:25;;;;;;;10.70;8.83;;;4.80;99.90;;;;;;5054445;28;20447;-70
2021/12/11 12:59:57;;;;;;;9.57;8.47;;;4.70;99.90;;;;;;5048495;28;20513;-72
2021/12/11 13:02:28;;;;;;;9.60;8.33;;;4.70;99.90;;;;;;5043499;28;20859;-71
2021/12/11 13:04:59;;;;;;;11.87;9.63;;;4.70;99.90;;;;;;5052888;28;20460;-72